Time;durP1;ratioP1;P1;durP2;ratioP2;P2;SDS_P1;SDS_P2;PMS_P1;PMS_P2;Temp;Humidity;BMP_temperature;BMP_pressure;BME280_temperature;BME280_humidity;BME280_pressure;Samples;Min_cycle;Max_cycle;Signal;HPM_P1;HPM_P2
2022/01/23 00:00:05;;;;;;;;;;;4.50;99.90;;;;;;5026029;28;20222;-70
2022/01/23 00:02:36;;;;;;;;;;;4.50;99.90;;;;;;5029696;28;20059;-70
2022/01/23 00:05:07;;;;;;;;;;;4.50;99.90;;;;;;5027444;28;20074;-69
2022/01/23 00:07:34;;;;;;;;;;;4.40;99.90;;;;;;5027696;28;20059;-70
2022/01/23 00:10:03;;;;;;;;;;;4.40;99.90;;;;;;5026604;28;20149;-70
2022/01/23 00:12:34;;;;;;;;;;;4.40;99.90;;;;;;5043142;28;20059;-70
2022/01/23 00:17:45;;;;;;;;;;;4.40;99.90;;;;;;5027487;28;20178;-69
2022/01/23 00:20:13;;;;;;;;;;;4.40;99.90;;;;;;5026171;28;21009;-69
2022/01/23 00:22:43;;;;;;;;;;;4.40;99.90;;;;;;5026673;28;21201;-70
2022/01/23 00:30:43;;;;;;;;;;;4.40;99.90;;;;;;5026346;28;20048;-70
2022/01/23 00:33:11;;;;;;;;;;;4.40;99.90;;;;;;5026445;28;20141;-70
2022/01/23 00:35:39;;;;;;;;;;;4.40;99.90;;;;;;5043516;28;20196;-69
2022/01/23 00:38:07;;;;;;;;;;;4.40;99.90;;;;;;5026649;28;20132;-70
2022/01/23 00:40:37;;;;;;;;;;;4.40;99.90;;;;;;5042027;28;21155;-69
2022/01/23 00:43:14;;;;;;;;;;;4.40;99.90;;;;;;5026110;28;20068;-70
2022/01/23 00:45:45;;;;;;;;;;;4.40;99.90;;;;;;5026255;28;20232;-70
2022/01/23 00:48:13;;;;;;;;;;;4.40;99.90;;;;;;5025918;28;20051;-70
2022/01/23 00:50:42;;;;;;;;;;;4.40;99.90;;;;;;5025158;28;21171;-70
2022/01/23 00:53:11;;;;;;;;;;;4.40;99.90;;;;;;5025780;28;20084;-70
2022/01/23 00:55:40;;;;;;;;;;;4.40;99.90;;;;;;5042996;28;20218;-70
2022/01/23 00:58:08;;;;;;;;;;;4.40;99.90;;;;;;5026263;28;20090;-70
2022/01/23 01:00:36;;;;;;;;;;;4.40;99.90;;;;;;5025093;28;20060;-70
2022/01/23 01:03:04;;;;;;;;;;;4.40;99.90;;;;;;5023321;28;20057;-70
2022/01/23 01:05:31;;;;;;;;;;;4.40;99.90;;;;;;5024416;28;20060;-69
2022/01/23 01:07:59;;;;;;;;;;;4.40;99.90;;;;;;5023698;28;20078;-70
2022/01/23 01:10:33;;;;;;;;;;;4.40;99.90;;;;;;5022899;28;20075;-70
2022/01/23 01:13:04;;;;;;;;;;;4.40;99.90;;;;;;5023486;28;20075;-70
2022/01/23 01:32:09;;;;;;;;;;;4.30;99.90;;;;;;5023567;28;20096;-70
2022/01/23 01:34:41;;;;;;;;;;;4.30;99.90;;;;;;5023735;28;20095;-71
2022/01/23 01:37:10;;;;;;;;;;;4.30;99.90;;;;;;5024031;28;20051;-70
2022/01/23 01:39:37;;;;;;;;;;;4.30;99.90;;;;;;5022515;28;21240;-69
2022/01/23 01:42:05;;;;;;;;;;;4.40;99.90;;;;;;5023324;28;20068;-70
2022/01/23 01:44:36;;;;;;;;;;;4.40;99.90;;;;;;5022799;28;20050;-71
2022/01/23 01:47:35;;;;;;;;;;;4.30;99.90;;;;;;5040284;28;21132;-70
2022/01/23 01:50:08;;;;;;;;;;;4.40;99.90;;;;;;5023002;28;20153;-70
2022/01/23 01:52:36;;;;;;;;;;;4.40;99.90;;;;;;5038527;28;20060;-70
2022/01/23 01:55:06;;;;;;;;;;;4.40;99.90;;;;;;5022650;28;20059;-70
2022/01/23 01:57:50;;;;;;;;;;;4.30;99.90;;;;;;5023633;28;20173;-70
2022/01/23 02:00:47;;;;;;;;;;;4.30;99.90;;;;;;4994299;28;20119;-70
2022/01/23 02:08:51;;;;;;;;;;;4.30;99.90;;;;;;5022512;28;21059;-69
2022/01/23 02:11:24;;;;;;;;;;;4.30;99.90;;;;;;5022974;28;20139;-69
2022/01/23 02:14:10;;;;;;;;;;;4.30;99.90;;;;;;5023139;28;20168;-70
2022/01/23 02:17:06;;;;;;;;;;;4.30;99.90;;;;;;5023599;28;20159;-70
2022/01/23 02:22:46;;;;;;;;;;;4.30;99.90;;;;;;5022472;28;20055;-71
2022/01/23 02:53:38;;;;;;;;;;;4.30;99.90;;;;;;4999218;23;20065;-72
2022/01/23 02:56:17;;;;;;;;;;;4.30;99.90;;;;;;5008192;28;20059;-71
2022/01/23 02:58:56;;;;;;;;;;;4.30;99.90;;;;;;5002388;28;20051;-69
2022/01/23 03:01:27;;;;;;;;;;;4.30;99.90;;;;;;5003643;28;20051;-71
2022/01/23 03:04:20;;;;;;;;;;;4.20;99.90;;;;;;5005490;28;20201;-71
2022/01/23 03:07:13;;;;;;;;;;;4.30;99.90;;;;;;5007682;28;20084;-72
2022/01/23 03:10:00;;;;;;;;;;;4.30;99.90;;;;;;5006949;28;20060;-71
2022/01/23 03:15:22;;;;;;;;;;;4.30;99.90;;;;;;5007297;28;20060;-71
2022/01/23 03:26:17;;;;;;;;;;;4.30;99.90;;;;;;5007138;28;20056;-71
2022/01/23 03:29:16;;;;;;;;;;;4.30;99.90;;;;;;5006061;28;21127;-72
2022/01/23 03:31:57;;;;;;;;;;;4.30;99.90;;;;;;5006583;28;20058;-71
2022/01/23 03:34:25;;;;;;;;;;;4.30;99.90;;;;;;5006623;28;21071;-71
2022/01/23 03:36:53;;;;;;;;;;;4.30;99.90;;;;;;5006779;28;21117;-71
2022/01/23 03:39:20;;;;;;;;;;;4.30;99.90;;;;;;5022604;28;20075;-71
2022/01/23 03:41:47;;;;;;;;;;;4.30;99.90;;;;;;5006568;28;20067;-71
2022/01/23 03:44:16;;;;;;;;;;;4.30;99.90;;;;;;5005857;28;20067;-71
2022/01/23 03:47:01;;;;;;;;;;;4.30;99.90;;;;;;5006477;28;20068;-72
2022/01/23 03:49:31;;;;;;;;;;;4.30;99.90;;;;;;5020578;28;20083;-71
2022/01/23 03:52:00;;;;;;;;;;;4.30;99.90;;;;;;5006694;28;20056;-71
2022/01/23 03:54:28;;;;;;;;;;;4.30;99.90;;;;;;5010122;28;20060;-71
2022/01/23 03:56:57;;;;;;;;;;;4.30;99.90;;;;;;5012870;28;21215;-71
2022/01/23 03:59:26;;;;;;;;;;;4.30;99.90;;;;;;5005578;28;20074;-72
2022/01/23 04:01:53;;;;;;;;;;;4.30;99.90;;;;;;5006481;28;21239;-71
2022/01/23 04:07:05;;;;;;;;;;;4.30;99.90;;;;;;5023854;28;20039;-71
2022/01/23 04:09:33;;;;;;;;;;;4.30;99.90;;;;;;5022385;28;20092;-71
2022/01/23 04:12:00;;;;;;;;;;;4.20;99.90;;;;;;5006644;28;20075;-70
2022/01/23 04:14:33;;;;;;;;;;;4.20;99.90;;;;;;5015381;28;20083;-71
2022/01/23 04:19:57;;;;;;;;;;;4.20;99.90;;;;;;4987973;28;20047;-71
2022/01/23 05:01:29;;;;;;;;;;;4.20;99.90;;;;;;5017468;28;20289;-70
2022/01/23 05:04:14;;;;;;;;;;;4.20;99.90;;;;;;5024853;28;21146;-72
2022/01/23 05:07:02;;;;;;;;;;;4.20;99.90;;;;;;5025754;28;20059;-71
2022/01/23 05:09:55;;;;;;;;;;;4.10;99.90;;;;;;5027212;28;20234;-71
2022/01/23 05:12:55;;;;;;;;;;;4.10;99.90;;;;;;4992256;28;20140;-72
2022/01/23 05:15:22;;;;;;;;;;;4.10;99.90;;;;;;5026657;28;20059;-71
2022/01/23 05:17:51;;;;;;;;;;;4.10;99.90;;;;;;5027122;28;20059;-71
2022/01/23 05:20:22;;;;;;;;;;;4.20;99.90;;;;;;5025684;28;21114;-71
2022/01/23 05:22:51;;;;;;;;;;;4.20;99.90;;;;;;5043393;28;20152;-71
2022/01/23 05:25:23;;;;;;;;;;;4.20;99.90;;;;;;5025446;28;20560;-71
2022/01/23 05:27:52;;;;;;;;;;;4.20;99.90;;;;;;5024441;28;20242;-73
2022/01/23 05:30:19;;;;;;;;;;;4.20;99.90;;;;;;5023492;28;20059;-73
2022/01/23 05:32:46;;;;;;;;;;;4.20;99.90;;;;;;5025947;28;20093;-72
2022/01/23 05:35:17;;;;;;;;;;;4.20;99.90;;;;;;5023706;28;20075;-72
2022/01/23 05:37:45;;;;;;;;;;;4.20;99.90;;;;;;5022286;28;20160;-72
2022/01/23 05:40:18;;;;;;;;;;;4.20;99.90;;;;;;5008215;28;21003;-72
2022/01/23 05:42:47;;;;;;;;;;;4.20;99.90;;;;;;5006196;28;20149;-71
2022/01/23 05:45:15;;;;;;;;;;;4.20;99.90;;;;;;5004326;28;20103;-72
2022/01/23 05:48:01;;;;;;;;;;;4.20;99.90;;;;;;5008208;28;21125;-72
2022/01/23 05:50:50;;;;;;;;;;;4.20;99.90;;;;;;5003467;28;20118;-72
2022/01/23 05:53:28;;;;;;;;;;;4.10;99.90;;;;;;5006857;28;20193;-71
2022/01/23 05:56:11;;;;;;;;;;;4.20;99.90;;;;;;5003941;28;20141;-72
2022/01/23 05:59:17;;;;;;;;;;;4.20;99.90;;;;;;4961683;28;20145;-72
2022/01/23 06:01:47;;;;;;;;;;;4.20;99.90;;;;;;4945869;28;20246;-71
2022/01/23 06:04:18;;;;;;;;;;;4.20;99.90;;;;;;5001630;28;21238;-72
2022/01/23 06:06:50;;;;;;;;;;;4.20;99.90;;;;;;5022704;28;21264;-72
2022/01/23 06:09:21;;;;;;;;;;;4.20;99.90;;;;;;5020388;28;20052;-72
2022/01/23 06:11:48;;;;;;;;;;;4.20;99.90;;;;;;5018681;28;20091;-72
2022/01/23 06:14:15;;;;;;;;;;;4.20;99.90;;;;;;5016657;28;20075;-72
2022/01/23 06:16:43;;;;;;;;;;;4.20;99.90;;;;;;5029915;28;20067;-71
2022/01/23 06:19:29;;;;;;;;;;;4.20;99.90;;;;;;5024957;28;21043;-72
2022/01/23 06:22:16;;;;;;;;;;;4.20;99.90;;;;;;4983687;28;21267;-72
2022/01/23 06:25:00;;;;;;;;;;;4.20;99.90;;;;;;5025855;28;21163;-70
2022/01/23 06:27:40;;;;;;;;;;;4.20;99.90;;;;;;5017950;28;20276;-72
2022/01/23 06:30:08;;;;;;;;;;;4.20;99.90;;;;;;5010352;28;20162;-73
2022/01/23 06:32:36;;;;;;;;;;;4.20;99.90;;;;;;5013439;28;20555;-72
2022/01/23 06:35:03;;;;;;;;;;;4.20;99.90;;;;;;5011394;28;20062;-72
2022/01/23 06:37:30;;;;;;;;;;;4.20;99.90;;;;;;5014343;28;20189;-72
2022/01/23 06:39:57;;;;;;;;;;;4.20;99.90;;;;;;5011647;28;20201;-71
2022/01/23 06:42:46;;;;;;;;;;;4.20;99.90;;;;;;4991937;28;20059;-71
2022/01/23 06:45:34;;;;;;;;;;;4.20;99.90;;;;;;5020457;28;20059;-71
2022/01/23 06:48:01;;;;;;;;;;;4.20;99.90;;;;;;5014529;28;20077;-71
2022/01/23 06:50:29;;;;;;;;;;;4.20;99.90;;;;;;5013280;28;20165;-71
2022/01/23 06:52:56;;;;;;;;;;;4.20;99.90;;;;;;5009488;28;20408;-72
2022/01/23 06:55:24;;;;;;;;;;;4.10;99.90;;;;;;5025989;28;21184;-71
2022/01/23 06:57:56;;;;;;;;;;;4.10;99.90;;;;;;5012418;28;20193;-71
2022/01/23 07:00:23;;;;;;;;;;;4.20;99.90;;;;;;5009749;28;20225;-72
2022/01/23 07:03:10;;;;;;;;;;;4.20;99.90;;;;;;5009368;28;20066;-71
2022/01/23 07:05:56;;;;;;;;;;;4.10;99.90;;;;;;5019740;28;20108;-71
2022/01/23 07:08:44;;;;;;;;;;;4.10;99.90;;;;;;5009683;28;20067;-68
2022/01/23 07:11:31;;;;;;;;;;;4.10;99.90;;;;;;5024324;28;20236;-70
2022/01/23 07:14:19;;;;;;;;;;;4.10;99.90;;;;;;5012929;28;20060;-70
2022/01/23 07:17:06;;;;;;;;;;;4.10;99.90;;;;;;5016104;28;20113;-72
2022/01/23 07:19:48;;;;;;;;;;;4.10;99.90;;;;;;5007752;28;20086;-71
2022/01/23 07:22:22;;;;;;;;;;;4.10;99.90;;;;;;5007275;28;20351;-70
2022/01/23 07:24:49;;;;;;;;;;;4.10;99.90;;;;;;5013737;28;20265;-70
2022/01/23 07:27:20;;;;;;;;;;;4.10;99.90;;;;;;5017458;28;20285;-71
2022/01/23 07:29:50;;;;;;;;;;;4.10;99.90;;;;;;5016273;28;20082;-72
2022/01/23 07:32:17;;;;;;;;;;;4.10;99.90;;;;;;5007086;28;20060;-71
2022/01/23 07:34:44;;;;;;;;;;;4.10;99.90;;;;;;5015820;28;20073;-71
2022/01/23 07:37:15;;;;;;;;;;;4.10;99.90;;;;;;5013735;28;20066;-71
2022/01/23 07:40:02;;;;;;;;;;;4.10;99.90;;;;;;4997086;28;20183;-70
2022/01/23 07:42:36;;;;;;;;;;;4.10;99.90;;;;;;5013900;28;21132;-71
2022/01/23 07:45:08;;;;;;;;;;;4.10;99.90;;;;;;5024644;28;20067;-70
2022/01/23 07:48:09;;;;;;;;;;;4.10;99.90;;;;;;5012972;28;20077;-71
2022/01/23 07:50:41;;;;;;;;;;;4.10;99.90;;;;;;5012230;28;20059;-71
2022/01/23 07:53:15;;;;;;;;;;;4.10;99.90;;;;;;5015234;28;21174;-72
2022/01/23 07:55:54;;;;;;;;;;;4.10;99.90;;;;;;5018748;28;20083;-72
2022/01/23 07:58:50;;;;;;;;;;;4.10;99.90;;;;;;4924278;28;21307;-71
2022/01/23 08:01:48;;;;;;;;;;;4.20;99.90;;;;;;5024804;28;20160;-70
2022/01/23 08:04:37;;;;;;;;;;;4.20;99.90;;;;;;5027165;28;21247;-70
2022/01/23 08:07:11;;;;;;;;;;;4.20;99.90;;;;;;5012714;28;20068;-71
2022/01/23 08:09:44;;;;;;;;;;;4.20;99.90;;;;;;5020122;28;20066;-71
2022/01/23 08:12:11;;;;;;;;;;;4.30;99.90;;;;;;5017563;28;20060;-70
2022/01/23 08:14:38;;;;;;;;;;;4.30;99.90;;;;;;5022000;28;21262;-71
2022/01/23 08:17:07;;;;;;;;;;;4.40;99.90;;;;;;5012695;28;20069;-72
2022/01/23 08:19:34;;;;;;;;;;;4.40;99.90;;;;;;5013904;28;21130;-72
2022/01/23 08:22:01;;;;;;;;;;;4.40;99.90;;;;;;5013561;28;20282;-71
2022/01/23 08:24:29;;;;;;;;;;;4.40;99.90;;;;;;5015995;28;20069;-72
2022/01/23 08:26:56;;;;;;;;;;;4.50;99.90;;;;;;5019569;28;20162;-72
2022/01/23 08:29:23;;;;;;;;;;;4.50;99.90;;;;;;5007208;28;21165;-71
2022/01/23 08:31:51;;;;;;;;;;;4.50;99.90;;;;;;5011632;28;20084;-71
2022/01/23 08:34:20;;;;;;;;;;;4.60;99.90;;;;;;5017465;28;20068;-71
2022/01/23 08:36:47;;;;;;;;;;;4.60;99.90;;;;;;5009261;28;20082;-70
2022/01/23 08:39:15;;;;;;;;;;;4.60;99.90;;;;;;5028211;28;20148;-72
2022/01/23 08:41:51;;;;;;;;;;;4.60;99.90;;;;;;5013326;28;20083;-71
2022/01/23 08:44:19;;;;;;;;;;;4.70;99.90;;;;;;5019274;28;20075;-70
2022/01/23 08:46:46;;;;;;;;;;;4.70;99.90;;;;;;5020442;28;20100;-71
2022/01/23 08:49:13;;;;;;;;;;;4.70;99.90;;;;;;5017961;28;20060;-72
2022/01/23 08:51:42;;;;;;;;;;;4.70;99.90;;;;;;5014867;28;20107;-71
2022/01/23 08:54:09;;;;;;;;;;;4.80;99.90;;;;;;5014078;28;20570;-71
2022/01/23 08:56:36;;;;;;;;;;;4.80;99.90;;;;;;5027338;28;21110;-71
2022/01/23 08:59:04;;;;;;;;;;;4.80;99.90;;;;;;5003667;28;21204;-71
2022/01/23 09:01:32;;;;;;;;;;;4.90;99.90;;;;;;5010202;28;20162;-72
2022/01/23 09:03:59;;;;;;;;;;;5.00;99.90;;;;;;5020543;28;20060;-70
2022/01/23 09:06:26;;;;;;;;;;;5.20;99.90;;;;;;5014777;28;21166;-71
2022/01/23 09:08:57;;;;;;;;;;;5.30;99.90;;;;;;5011345;28;20060;-71
2022/01/23 09:11:38;;;;;;;;;;;5.60;99.90;;;;;;5024748;28;20068;-71
2022/01/23 09:14:10;;;;;;;;;;;5.80;99.90;;;;;;5017276;28;20248;-72
2022/01/23 09:16:38;;;;;;;;;;;6.00;99.90;;;;;;5023407;28;20201;-72
2022/01/23 09:19:05;;;;;;;;;;;6.00;99.90;;;;;;5013715;28;21049;-70
2022/01/23 09:21:32;;;;;;;;;;;5.90;99.90;;;;;;5010242;28;21068;-69
2022/01/23 09:24:01;;;;;;;;;;;5.80;99.90;;;;;;5017092;28;20076;-70
2022/01/23 09:26:28;;;;;;;;;;;5.80;99.90;;;;;;5020978;28;20075;-70
2022/01/23 09:28:58;;;;;;;;;;;5.60;99.90;;;;;;5028565;28;20075;-71
2022/01/23 09:31:30;;;;;;;;;;;5.60;99.90;;;;;;5035924;28;20058;-72
2022/01/23 09:33:57;;;;;;;;;;;5.50;99.90;;;;;;5010266;28;21128;-72
2022/01/23 09:36:24;;;;;;;;;;;5.50;99.90;;;;;;5019275;28;20067;-71
2022/01/23 09:38:51;;;;;;;;;;;5.50;99.90;;;;;;5011924;28;21095;-70
2022/01/23 09:41:23;;;;;;;;;;;5.50;99.90;;;;;;5009511;28;20077;-71
2022/01/23 09:43:50;;;;;;;;;;;5.60;99.90;;;;;;5015339;28;20075;-71
2022/01/23 09:46:17;;;;;;;;;;;5.60;99.90;;;;;;5015632;28;21029;-71
2022/01/23 09:48:46;;;;;;;;;;;5.60;99.90;;;;;;5011140;28;21046;-69
2022/01/23 09:51:14;;;;;;;;;;;5.60;99.90;;;;;;5010961;28;20513;-71
2022/01/23 09:53:41;;;;;;;;;;;5.60;99.90;;;;;;5014307;28;20086;-71
2022/01/23 09:56:13;;;;;;;;;;;5.60;99.90;;;;;;5010419;28;20067;-71
2022/01/23 09:58:41;;;;;;;;;;;5.60;99.90;;;;;;5015156;28;21263;-70
2022/01/23 10:01:10;;;;;;;;;;;5.50;99.90;;;;;;5030855;28;20082;-71
2022/01/23 10:03:38;;;;;;;;;;;5.50;99.90;;;;;;5013747;28;20296;-71
2022/01/23 10:06:08;;;;;;;;;;;5.50;99.90;;;;;;5014250;28;20148;-72
2022/01/23 10:08:36;;;;;;;;;;;5.50;99.90;;;;;;5013540;28;21083;-72
2022/01/23 10:11:09;;;;;;;;;;;5.60;99.90;;;;;;5028292;28;20771;-71
2022/01/23 10:13:37;;;;;;;;;;;5.60;99.90;;;;;;5019004;28;20060;-71
2022/01/23 10:16:06;;;;;;;;;;;5.70;99.90;;;;;;5019531;28;21245;-70
2022/01/23 10:18:33;;;;;;;;;;;5.70;99.90;;;;;;5013169;28;21187;-71
2022/01/23 10:21:00;;;;;;;;;;;5.70;99.90;;;;;;5002647;28;20073;-70
2022/01/23 10:23:28;;;;;;;;;;;5.70;99.90;;;;;;5019213;28;20076;-71
2022/01/23 10:25:55;;;;;;;;;;;5.80;99.90;;;;;;5035190;28;20191;-71
2022/01/23 10:28:28;;;;;;;;;;;5.80;99.90;;;;;;5008231;28;20051;-71
2022/01/23 10:30:56;;;;;;;;;;;5.70;99.90;;;;;;5011046;28;20059;-71
2022/01/23 10:33:26;;;;;;;;;;;5.70;99.90;;;;;;5016014;28;20067;-70
2022/01/23 10:35:54;;;;;;;;;;;5.80;99.90;;;;;;5009714;28;20051;-71
2022/01/23 10:38:22;;;;;;;;;;;5.80;99.90;;;;;;5017770;28;20161;-72
2022/01/23 10:40:54;;;;;;;;;;;5.80;99.90;;;;;;5010887;28;20066;-71
2022/01/23 10:49:00;;;;;;;;;;;6.00;99.90;;;;;;5003153;28;20072;-69
2022/01/23 10:51:29;;;;;;;;;;;5.90;99.90;;;;;;5021707;28;20103;-68
2022/01/23 10:53:57;;;;;;;;;;;6.00;99.90;;;;;;5013967;28;20060;-68
2022/01/23 10:56:24;;;;;;;;;;;6.00;99.90;;;;;;5022101;28;20203;-71
2022/01/23 10:58:57;;;;;;;;;;;6.00;99.90;;;;;;5012452;28;20098;-70
2022/01/23 11:01:24;;;;;;;;;;;6.00;99.90;;;;;;5016850;28;20198;-71
2022/01/23 11:04:05;;;;;;;;;;;6.00;99.90;;;;;;5020086;28;20230;-71
2022/01/23 11:06:32;;;;;;;;;;;6.00;99.90;;;;;;5006270;28;20060;-70
2022/01/23 11:09:08;;;;;;;;;;;6.10;99.90;;;;;;5010850;28;20179;-71
2022/01/23 11:11:44;;;;;;;;;;;6.20;99.90;;;;;;5020623;28;21172;-71
2022/01/23 11:19:46;;;;;;;;;;;6.20;99.90;;;;;;5007412;28;20100;-70
2022/01/23 11:22:17;;;;;;;;;;;6.10;99.90;;;;;;5025323;28;20075;-71
2022/01/23 11:24:45;;;;;;;;;;;6.20;99.90;;;;;;5011109;28;21084;-71
2022/01/23 11:27:12;;;;;;;;;;;6.20;99.90;;;;;;5016192;28;20181;-71
2022/01/23 11:29:53;;;;;;;;;;;6.30;99.90;;;;;;5012153;28;20140;-72
2022/01/23 11:32:21;;;;;;;;;;;6.20;99.90;;;;;;5013216;28;20077;-69
2022/01/23 11:34:51;;;;;;;;;;;6.20;99.90;;;;;;5016140;28;21169;-69
2022/01/23 11:37:19;;;;;;;;;;;6.30;99.90;;;;;;5021533;28;20075;-69
2022/01/23 11:39:51;;;;;;;;;;;6.20;99.90;;;;;;5013515;28;20068;-69
2022/01/23 11:50:45;;;;;;;;;;;6.30;99.90;;;;;;5017534;28;20045;-71
2022/01/23 11:53:49;;;;;;;;;;;6.30;99.90;;;;;;5009908;28;20274;-71
2022/01/23 11:56:36;;;;;;;;;;;6.30;99.90;;;;;;5012354;28;21047;-70
2022/01/23 11:59:29;;;;;;;;;;;6.20;99.90;;;;;;5023531;28;20099;-71
2022/01/23 12:02:22;;;;;;;;;;;6.20;99.90;;;;;;5015111;28;20074;-69
2022/01/23 12:05:07;;;;;;;;;;;6.20;99.90;;;;;;5019736;28;20076;-71
2022/01/23 12:07:36;;;;;;;;;;;6.20;99.90;;;;;;5015958;28;20107;-71
2022/01/23 12:10:10;;;;;;;;;;;6.20;99.90;;;;;;5011637;28;20068;-71
2022/01/23 12:12:41;;;;;;;;;;;6.20;99.90;;;;;;5024559;28;20063;-70
2022/01/23 12:18:13;;;;;;;;;;;6.20;99.90;;;;;;5031422;28;20229;-71
2022/01/23 12:20:40;;;;;;;;;;;6.30;99.90;;;;;;5014562;28;20280;-71
2022/01/23 12:23:09;;;;;;;;;;;6.30;99.90;;;;;;5016303;28;21422;-68
2022/01/23 12:25:41;;;;;;;;;;;6.30;99.90;;;;;;5016522;28;20059;-69
2022/01/23 12:28:13;;;;;;;;;;;6.40;99.90;;;;;;5021895;28;20088;-71
2022/01/23 12:30:42;;;;;;;;;;;6.50;99.90;;;;;;5007994;28;20087;-70
2022/01/23 12:33:14;;;;;;;;;;;6.50;99.90;;;;;;5018307;28;20140;-70
2022/01/23 12:35:42;;;;;;;;;;;6.60;99.90;;;;;;5018388;28;20158;-71
2022/01/23 12:38:13;;;;;;;;;;;6.60;99.90;;;;;;5036370;28;21075;-71
2022/01/23 12:40:43;;;;;;;;;;;6.60;99.90;;;;;;5015840;28;20060;-71
2022/01/23 12:43:12;;;;;;;;;;;6.60;99.90;;;;;;5026605;28;20066;-71
2022/01/23 12:45:52;;;;;;;;;;;6.60;99.90;;;;;;5009967;28;20100;-69
2022/01/23 12:48:38;;;;;;;;;;;6.60;99.90;;;;;;5018600;28;20075;-69
2022/01/23 12:51:09;;;;;;;;;;;6.70;99.90;;;;;;5019438;28;20071;-69
2022/01/23 12:53:38;;;;;;;;;;;6.60;99.90;;;;;;5016138;28;20099;-69
2022/01/23 12:56:06;;;;;;;;;;;6.60;99.90;;;;;;5024634;28;20075;-71
2022/01/23 12:58:34;;;;;;;;;;;6.50;99.90;;;;;;5017412;28;20058;-70
2022/01/23 13:01:01;;;;;;;;;;;6.50;99.90;;;;;;5017986;28;20071;-70
2022/01/23 13:03:28;;;;;;;;;;;6.50;99.90;;;;;;5026556;28;20192;-70
2022/01/23 13:05:56;;;;;;;;;;;6.50;99.90;;;;;;5018067;28;20120;-69
2022/01/23 13:08:27;;;;;;;;;;;6.60;99.90;;;;;;5010319;28;20076;-70
2022/01/23 13:11:20;;;;;;;;;;;6.60;99.90;;;;;;5022563;28;20063;-70
2022/01/23 13:13:58;;;;;;;;;;;6.60;99.90;;;;;;5006696;28;21368;-71
2022/01/23 13:16:33;;;;;;;;;;;6.60;99.90;;;;;;5018254;28;20170;-71
2022/01/23 13:19:43;;;;;;;;;;;6.60;99.90;;;;;;5017053;28;20059;-71
2022/01/23 13:28:43;;;;;;;;;;;6.80;99.90;;;;;;5031748;28;20144;-71
2022/01/23 13:30:53;;;;;;;;;;;6.70;99.90;;;;;;5031524;28;20066;-71
2022/01/23 13:33:22;;;;;;;;;;;6.80;99.90;;;;;;5015132;28;20048;-71
2022/01/23 13:35:52;;;;;;;;;;;6.70;99.90;;;;;;5011298;28;21088;-71
2022/01/23 13:38:20;;;;;;;;;;;6.70;99.90;;;;;;5032229;28;20051;-71
2022/01/23 13:40:56;;;;;;;;;;;6.70;99.90;;;;;;5011647;28;21059;-71
2022/01/23 13:51:57;;;;;;;;;;;6.60;99.90;;;;;;5017125;28;20056;-71
2022/01/23 13:59:59;;;;;;;;;;;6.60;99.90;;;;;;5025588;28;21079;-71
2022/01/23 14:02:27;;;;;;;;;;;6.60;99.90;;;;;;5016556;28;20074;-71
2022/01/23 14:04:56;;;;;;;;;;;6.60;99.90;;;;;;5015165;28;20068;-71
2022/01/23 14:07:24;;;;;;;;;;;6.60;99.90;;;;;;5009424;28;20188;-71
2022/01/23 14:09:51;;;;;;;;;;;6.60;99.90;;;;;;5015562;28;20177;-71
2022/01/23 14:12:19;;;;;;;;;;;6.60;99.90;;;;;;5016616;28;20081;-70
2022/01/23 14:14:51;;;;;;;;;;;6.60;99.90;;;;;;5014790;28;20170;-71
2022/01/23 14:17:20;;;;;;;;;;;6.60;99.90;;;;;;5010247;28;20060;-71
2022/01/23 14:19:57;;;;;;;;;;;6.60;99.90;;;;;;5014794;28;20164;-71
2022/01/23 14:22:28;;;;;;;;;;;6.60;99.90;;;;;;5016498;28;20068;-71
2022/01/23 14:25:06;;;;;;;;;;;6.60;99.90;;;;;;5009449;28;20065;-70
2022/01/23 14:27:33;;;;;;;;;;;6.50;99.90;;;;;;5005437;28;20059;-70
2022/01/23 14:30:05;;;;;;;;;;;6.50;99.90;;;;;;5016819;28;20069;-72
2022/01/23 14:32:41;;;;;;;;;;;6.50;99.90;;;;;;5002574;28;21095;-69
2022/01/23 14:35:11;;;;;;;;;;;6.50;99.90;;;;;;5004100;28;20092;-70
2022/01/23 14:37:38;;;;;;;;;;;6.40;99.90;;;;;;5005072;28;20087;-71
2022/01/23 14:40:13;;;;;;;;;;;6.40;99.90;;;;;;5004222;28;20060;-71
2022/01/23 14:42:40;;;;;;;;;;;6.40;99.90;;;;;;4999095;28;20234;-69
2022/01/23 14:45:07;;;;;;;;;;;6.40;99.90;;;;;;4998271;28;20100;-69
2022/01/23 14:47:37;;;;;;;;;;;6.40;99.90;;;;;;4999799;28;21138;-68
2022/01/23 14:50:06;;;;;;;;;;;6.40;99.90;;;;;;4997786;28;21096;-69
2022/01/23 14:55:13;;;;;;;;;;;6.20;99.90;;;;;;4957120;28;20068;-70
2022/01/23 14:57:41;;;;;;;;;;;6.30;99.90;;;;;;4946763;28;20097;-68
2022/01/23 15:00:10;;;;;;;;;;;6.20;99.90;;;;;;4950951;28;20075;-70
2022/01/23 15:02:38;;;;;;;;;;;6.10;99.90;;;;;;4952958;28;20069;-67
2022/01/23 15:05:07;;;;;;;;;;;6.00;99.90;;;;;;4953429;28;20171;-70
2022/01/23 15:07:35;;;;;;;;;;;6.00;99.90;;;;;;4954070;28;21172;-70
2022/01/23 15:10:02;;;;;;;;;;;6.00;99.90;;;;;;4953220;28;20080;-69
2022/01/23 15:12:29;;;;;;;;;;;5.90;99.90;;;;;;4972221;28;21217;-70
2022/01/23 15:14:56;;;;;;;;;;;5.90;99.90;;;;;;4973345;28;20063;-69
2022/01/23 15:17:25;;;;;;;;;;;5.90;99.90;;;;;;4972918;28;20090;-70
2022/01/23 15:19:54;;;;;;;;;;;5.90;99.90;;;;;;4988107;28;20286;-69
2022/01/23 15:22:22;;;;;;;;;;;5.80;99.90;;;;;;4973080;28;21169;-70
2022/01/23 15:24:49;;;;;;;;;;;5.80;99.90;;;;;;4973542;28;21211;-72
2022/01/23 15:27:17;;;;;;;;;;;5.80;99.90;;;;;;4972574;28;20088;-68
2022/01/23 15:29:45;;;;;;;;;;;5.70;99.90;;;;;;4971612;28;20169;-70
2022/01/23 15:32:12;;;;;;;;;;;5.70;99.90;;;;;;4972427;28;20084;-70
2022/01/23 15:34:40;;;;;;;;;;;5.70;99.90;;;;;;4971573;28;20092;-71
2022/01/23 15:37:14;;;;;;;;;;;5.70;99.90;;;;;;4972908;28;21325;-71
2022/01/23 15:39:41;;;;;;;;;;;5.70;99.90;;;;;;4971663;28;20182;-71
2022/01/23 15:42:09;;;;;;;;;;;5.70;99.90;;;;;;4972436;28;20182;-71
2022/01/23 15:44:36;;;;;;;;;;;5.70;99.90;;;;;;4988354;28;21139;-70
2022/01/23 15:47:05;;;;;;;;;;;5.60;99.90;;;;;;4972303;28;20059;-71
2022/01/23 15:49:32;;;;;;;;;;;5.60;99.90;;;;;;4971551;28;20154;-69
2022/01/23 15:51:59;;;;;;;;;;;5.60;99.90;;;;;;4962380;28;20077;-71
2022/01/23 15:54:29;;;;;;;;;;;5.50;99.90;;;;;;4952387;28;21142;-71
2022/01/23 15:56:57;;;;;;;;;;;5.50;99.90;;;;;;4953282;28;20275;-70
2022/01/23 15:59:24;;;;;;;;;;;5.50;99.90;;;;;;4951994;28;20067;-71
2022/01/23 16:01:51;;;;;;;;;;;5.50;99.90;;;;;;4952740;28;21109;-70
2022/01/23 16:04:19;;;;;;;;;;;5.40;99.90;;;;;;4951919;28;20063;-70
2022/01/23 16:06:47;;;;;;;;;;;5.50;99.90;;;;;;4947665;28;21073;-68
2022/01/23 16:09:14;;;;;;;;;;;5.50;99.90;;;;;;4952569;28;20097;-69
2022/01/23 16:11:43;;;;;;;;;;;5.40;99.90;;;;;;4960771;28;20068;-71
2022/01/23 16:14:11;;;;;;;;;;;5.40;99.90;;;;;;4971459;28;20052;-71
2022/01/23 16:16:38;;;;;;;;;;;5.40;99.90;;;;;;4967458;28;20086;-69
2022/01/23 16:19:05;;;;;;;;;;;5.40;99.90;;;;;;4962139;28;20077;-70
2022/01/23 16:21:32;;;;;;;;;;;5.40;99.90;;;;;;4961132;28;20085;-70
2022/01/23 16:23:59;;;;;;;;;;;5.30;99.90;;;;;;4952838;28;20271;-70
2022/01/23 16:26:26;;;;;;;;;;;5.30;99.90;;;;;;4961609;28;20093;-71
2022/01/23 16:28:55;;;;;;;;;;;5.30;99.90;;;;;;4932505;28;20163;-71
2022/01/23 16:31:22;;;;;;;;;;;5.30;99.90;;;;;;4932533;28;20061;-71
2022/01/23 16:33:49;;;;;;;;;;;5.20;99.90;;;;;;4932271;28;20070;-70
2022/01/23 16:36:17;;;;;;;;;;;5.20;99.90;;;;;;4932848;28;21161;-71
2022/01/23 16:38:44;;;;;;;;;;;5.30;99.90;;;;;;4948133;28;21133;-68
2022/01/23 16:41:11;;;;;;;;;;;5.20;99.90;;;;;;4931763;28;20142;-71
2022/01/23 16:43:38;;;;;;;;;;;5.20;99.90;;;;;;4932312;28;20085;-71
2022/01/23 16:46:08;;;;;;;;;;;5.20;99.90;;;;;;4932838;28;20061;-71
2022/01/23 16:48:35;;;;;;;;;;;5.20;99.90;;;;;;4932198;28;20077;-70
2022/01/23 16:51:03;;;;;;;;;;;5.20;99.90;;;;;;4932254;28;20064;-71
2022/01/23 16:53:30;;;;;;;;;;;5.20;99.90;;;;;;4942297;28;20079;-70
2022/01/23 16:55:57;;;;;;;;;;;5.20;99.90;;;;;;4951456;28;21086;-71
2022/01/23 16:58:25;;;;;;;;;;;5.20;99.90;;;;;;4951762;28;20108;-71
2022/01/23 17:00:52;;;;;;;;;;;5.10;99.90;;;;;;4950208;28;21009;-71
2022/01/23 17:03:21;;;;;;;;;;;5.10;99.90;;;;;;4951701;28;21154;-76
2022/01/23 17:05:49;;;;;;;;;;;5.10;99.90;;;;;;4944082;28;20061;-70
2022/01/23 17:08:17;;;;;;;;;;;5.10;99.90;;;;;;4977405;28;21074;-71
2022/01/23 17:10:44;;;;;;;;;;;5.10;99.90;;;;;;4965299;28;20060;-71
2022/01/23 17:13:12;;;;;;;;;;;5.10;99.90;;;;;;4950424;28;21153;-71
2022/01/23 17:15:39;;;;;;;;;;;5.10;99.90;;;;;;4951941;28;20192;-71
2022/01/23 17:18:07;;;;;;;;;;;5.10;99.90;;;;;;4950877;28;20180;-72
2022/01/23 17:20:36;;;;;;;;;;;5.00;99.90;;;;;;4950163;28;20069;-71
2022/01/23 17:23:03;;;;;;;;;;;5.00;99.90;;;;;;4955211;28;20059;-71
2022/01/23 17:25:30;;;;;;;;;;;5.00;99.90;;;;;;4952268;28;20172;-71
2022/01/23 17:27:57;;;;;;;;;;;5.00;99.90;;;;;;4949123;28;20152;-72
2022/01/23 17:30:25;;;;;;;;;;;5.00;99.90;;;;;;4950447;28;20060;-71
2022/01/23 17:32:52;;;;;;;;;;;5.00;99.90;;;;;;4948446;28;21162;-70
2022/01/23 17:35:21;;;;;;;;;;;5.00;99.90;;;;;;4948769;28;20076;-71
2022/01/23 17:37:50;;;;;;;;;;;5.00;99.90;;;;;;4953146;28;20114;-71
2022/01/23 17:40:18;;;;;;;;;;;5.00;99.90;;;;;;4947191;28;21061;-71